createdAt,value
2022-08-11T00:02:46.304Z,6.80
2022-08-11T00:05:16.426Z,5.23
2022-08-11T00:07:52.342Z,4.70
2022-08-11T00:10:25.822Z,6.28
2022-08-11T00:12:58.263Z,5.18
2022-08-11T00:15:27.613Z,6.15
2022-08-11T00:18:02.226Z,6.13
2022-08-11T00:20:34.524Z,6.03
2022-08-11T00:23:20.750Z,5.70
2022-08-11T00:25:52.058Z,5.43
2022-08-11T00:28:37.493Z,7.18
2022-08-11T00:31:10.936Z,8.23
2022-08-11T00:33:44.950Z,5.65
2022-08-11T00:36:15.820Z,5.40
2022-08-11T00:38:45.277Z,5.90
2022-08-11T00:41:37.255Z,7.85
2022-08-11T00:44:24.212Z,5.80
2022-08-11T00:47:15.337Z,7.65
2022-08-11T00:50:03.549Z,6.25
2022-08-11T00:53:00.884Z,5.70
2022-08-11T00:55:36.748Z,5.45
2022-08-11T00:58:31.797Z,7.15
2022-08-11T01:01:17.183Z,5.82
2022-08-11T01:03:47.199Z,5.80
2022-08-11T01:06:17.077Z,5.22
2022-08-11T01:09:22.258Z,6.13
2022-08-11T01:12:11.734Z,6.32
2022-08-11T01:14:56.086Z,6.55
2022-08-11T01:17:47.535Z,6.32
2022-08-11T01:20:46.240Z,4.53
2022-08-11T01:23:41.281Z,6.13
2022-08-11T01:26:27.220Z,6.72
2022-08-11T01:29:15.576Z,6.68
2022-08-11T01:32:04.304Z,6.30
2022-08-11T01:35:24.867Z,6.15
2022-08-11T01:38:21.488Z,5.68
2022-08-11T01:41:22.846Z,7.45
2022-08-11T01:47:52.930Z,6.82
2022-08-11T01:51:01.709Z,7.95
2022-08-11T01:53:57.801Z,6.97
2022-08-11T01:56:49.583Z,12.35
2022-08-11T01:59:37.464Z,6.07
2022-08-11T02:02:42.874Z,9.07
2022-08-11T02:05:34.145Z,10.88
2022-08-11T02:08:34.969Z,7.03
2022-08-11T02:11:31.557Z,13.18
2022-08-11T02:14:26.808Z,8.35
2022-08-11T02:17:08.960Z,6.43
2022-08-11T02:20:06.663Z,7.60
2022-08-11T02:23:40.997Z,8.30
2022-08-11T02:26:23.619Z,7.28
2022-08-11T02:29:20.960Z,8.13
2022-08-11T02:32:30.116Z,8.35
2022-08-11T02:35:23.809Z,12.00
2022-08-11T02:37:55.087Z,6.60
2022-08-11T02:40:57.020Z,7.05
2022-08-11T02:43:47.306Z,5.75
2022-08-11T02:46:20.356Z,8.57
2022-08-11T02:52:15.250Z,9.77
2022-08-11T02:54:49.063Z,7.75
2022-08-11T02:57:37.450Z,8.07
2022-08-11T03:00:12.302Z,7.35
2022-08-11T03:03:06.453Z,8.05
2022-08-11T03:05:47.913Z,8.68
2022-08-11T03:08:42.128Z,9.93
2022-08-11T03:11:38.245Z,9.30
2022-08-11T03:14:40.329Z,8.10
2022-08-11T03:17:16.479Z,8.50
2022-08-11T03:20:25.778Z,9.70
2022-08-11T03:23:20.333Z,9.32
2022-08-11T03:26:11.497Z,7.55
2022-08-11T03:28:53.281Z,8.00
2022-08-11T03:31:32.648Z,9.40
2022-08-11T03:34:13.703Z,7.68
2022-08-11T03:37:17.083Z,9.00
2022-08-11T03:40:03.877Z,7.70
2022-08-11T03:42:58.665Z,8.70
2022-08-11T03:45:37.402Z,9.65
2022-08-11T03:48:29.559Z,10.82
2022-08-11T03:51:07.131Z,10.90
2022-08-11T03:54:10.565Z,11.65
2022-08-11T03:56:58.890Z,10.68
2022-08-11T04:00:03.700Z,9.73
2022-08-11T04:02:32.388Z,10.68
2022-08-11T04:05:15.205Z,11.93
2022-08-11T04:08:16.125Z,10.20
2022-08-11T04:11:02.633Z,8.85
2022-08-11T04:13:29.493Z,8.43
2022-08-11T04:16:11.789Z,10.50
2022-08-11T04:19:17.540Z,7.88
2022-08-11T04:22:07.219Z,10.52
2022-08-11T04:25:07.751Z,8.75
2022-08-11T04:27:52.574Z,8.93
2022-08-11T04:30:34.985Z,9.00
2022-08-11T04:33:35.339Z,7.80
2022-08-11T04:36:41.591Z,10.40
2022-08-11T04:39:28.175Z,8.27
2022-08-11T04:42:44.586Z,8.63
2022-08-11T04:45:56.325Z,7.78
2022-08-11T04:49:10.552Z,6.47
2022-08-11T04:52:35.930Z,7.75
2022-08-11T04:55:45.305Z,7.90
2022-08-11T04:58:55.198Z,8.02
2022-08-11T05:01:43.523Z,7.82
2022-08-11T05:04:32.003Z,9.75
2022-08-11T05:07:39.285Z,9.15
2022-08-11T05:10:24.459Z,9.10
2022-08-11T05:12:57.166Z,7.43
2022-08-11T05:16:05.601Z,9.57
2022-08-11T05:18:52.749Z,6.15
2022-08-11T05:21:44.889Z,8.95
2022-08-11T05:24:44.945Z,7.72
2022-08-11T05:27:34.079Z,9.85
2022-08-11T05:30:29.088Z,7.03
2022-08-11T05:33:30.585Z,7.25
2022-08-11T05:36:23.363Z,5.40
2022-08-11T05:39:21.102Z,4.90
2022-08-11T05:42:30.407Z,7.82
2022-08-11T05:46:03.039Z,4.95
2022-08-11T05:48:53.959Z,6.28
2022-08-11T05:51:54.576Z,6.53
2022-08-11T05:54:46.711Z,6.30
2022-08-11T05:57:49.866Z,8.80
2022-08-11T06:00:15.231Z,8.93
2022-08-11T06:02:49.148Z,8.52
2022-08-11T06:05:19.506Z,7.15
2022-08-11T06:07:50.161Z,7.80
2022-08-11T06:10:38.073Z,7.38
2022-08-11T06:13:07.073Z,6.65
2022-08-11T06:15:45.593Z,5.90
2022-08-11T06:18:16.545Z,7.70
2022-08-11T06:20:54.045Z,12.77
2022-08-11T06:23:23.903Z,7.82
2022-08-11T06:25:53.040Z,16.92
2022-08-11T06:28:32.727Z,9.75
2022-08-11T06:31:00.113Z,8.88
2022-08-11T06:33:31.804Z,6.97
2022-08-11T06:36:22.411Z,9.70
2022-08-11T06:39:33.328Z,9.65
2022-08-11T06:42:11.170Z,7.60
2022-08-11T06:44:56.231Z,7.18
2022-08-11T06:47:23.488Z,13.43
2022-08-11T06:50:09.118Z,7.38
2022-08-11T06:52:38.499Z,9.00
2022-08-11T06:55:58.251Z,8.68
2022-08-11T06:58:23.312Z,7.72
2022-08-11T07:00:57.244Z,9.60
2022-08-11T07:03:28.652Z,6.50
2022-08-11T07:06:04.593Z,6.82
2022-08-11T07:09:08.938Z,5.90
2022-08-11T07:12:07.633Z,4.85
2022-08-11T07:15:00.848Z,5.82
2022-08-11T07:17:31.849Z,9.80
2022-08-11T07:20:20.405Z,5.18
2022-08-11T07:23:15.852Z,4.70
2022-08-11T07:26:05.999Z,4.93
2022-08-11T07:28:53.389Z,4.78
2022-08-11T07:31:32.701Z,5.00
2022-08-11T07:34:19.304Z,7.05
2022-08-11T07:36:52.519Z,6.03
2022-08-11T07:39:22.617Z,4.35
2022-08-11T07:41:52.139Z,6.35
2022-08-11T07:44:19.465Z,6.43
2022-08-11T07:47:08.119Z,4.75
2022-08-11T07:49:56.496Z,4.15
2022-08-11T07:52:29.508Z,5.78
2022-08-11T07:55:10.432Z,3.03
2022-08-11T07:58:15.586Z,4.57
2022-08-11T08:01:09.917Z,3.50
2022-08-11T08:04:02.883Z,7.28
2022-08-11T08:06:51.109Z,4.22
2022-08-11T08:09:39.581Z,4.47
2022-08-11T08:12:26.984Z,3.63
2022-08-11T08:15:14.322Z,4.18
2022-08-11T08:18:20.538Z,4.57
2022-08-11T08:20:46.669Z,4.68
2022-08-11T08:23:13.922Z,4.43
2022-08-11T08:25:43.573Z,3.20
2022-08-11T08:28:14.985Z,3.90
2022-08-11T08:30:50.704Z,6.93
2022-08-11T08:33:23.321Z,5.07
2022-08-11T08:36:11.627Z,6.38
2022-08-11T08:38:47.255Z,5.13
2022-08-11T08:41:17.915Z,4.60
2022-08-11T08:43:49.600Z,3.95
2022-08-11T08:46:22.260Z,3.58
2022-08-11T08:48:50.438Z,4.05
2022-08-11T08:51:57.917Z,5.82
2022-08-11T08:56:55.477Z,2.60
2022-08-11T08:59:25.961Z,3.38
2022-08-11T09:02:04.772Z,6.05
2022-08-11T09:04:32.889Z,9.43
2022-08-11T09:07:07.096Z,14.23
2022-08-11T09:09:35.525Z,4.53
2022-08-11T09:12:05.519Z,7.47
2022-08-11T09:15:00.356Z,5.38
2022-08-11T09:17:41.887Z,3.47
2022-08-11T09:20:24.913Z,5.68
2022-08-11T09:26:21.822Z,4.53
2022-08-11T09:28:52.260Z,2.88
2022-08-11T09:34:14.845Z,3.30
2022-08-11T09:37:02.966Z,4.30
2022-08-11T09:39:49.821Z,5.70
2022-08-11T09:42:23.472Z,5.45
2022-08-11T09:44:53.267Z,4.80
2022-08-11T09:47:26.137Z,2.92
2022-08-11T09:50:00.129Z,2.75
2022-08-11T09:52:30.843Z,5.35
2022-08-11T09:54:58.589Z,4.20
2022-08-11T09:57:44.397Z,4.47
2022-08-11T10:00:14.076Z,5.82
2022-08-11T10:02:47.072Z,4.18
2022-08-11T10:05:36.457Z,3.10
2022-08-11T10:08:05.232Z,5.40
2022-08-11T10:10:36.526Z,5.70
2022-08-11T10:14:03.774Z,3.25
2022-08-11T10:16:15.160Z,3.10
2022-08-11T10:18:52.793Z,2.55
2022-08-11T10:21:41.375Z,8.73
2022-08-11T10:24:28.973Z,2.65
2022-08-11T10:26:57.132Z,3.80
2022-08-11T10:29:50.194Z,3.22
2022-08-11T10:32:57.706Z,4.45
2022-08-11T10:35:29.467Z,3.47
2022-08-11T10:38:06.656Z,3.42
2022-08-11T10:43:07.112Z,2.88
2022-08-11T10:45:56.724Z,3.83
2022-08-11T10:48:26.902Z,4.10
2022-08-11T10:51:13.898Z,2.53
2022-08-11T10:54:05.418Z,3.45
2022-08-11T10:56:55.191Z,3.05
2022-08-11T10:59:24.580Z,6.07
2022-08-11T11:01:53.530Z,2.20
2022-08-11T11:04:51.016Z,3.88
2022-08-11T11:07:24.965Z,4.13
2022-08-11T11:09:58.595Z,3.13
2022-08-11T11:12:54.697Z,2.58
2022-08-11T11:15:42.165Z,3.13
2022-08-11T11:18:21.349Z,4.20
2022-08-11T11:21:04.430Z,4.25
2022-08-11T11:23:49.945Z,3.38
2022-08-11T11:26:29.067Z,3.22
2022-08-11T11:29:20.443Z,1.70
2022-08-11T11:31:59.378Z,3.20
2022-08-11T11:34:59.923Z,5.28
2022-08-11T11:37:29.476Z,2.40
2022-08-11T11:39:57.803Z,4.45
2022-08-11T11:42:25.450Z,2.17
2022-08-11T11:44:55.864Z,2.57
2022-08-11T11:47:24.100Z,3.25
2022-08-11T11:49:51.252Z,2.17
2022-08-11T11:52:21.149Z,4.72
2022-08-11T11:54:52.175Z,2.80
2022-08-11T11:57:39.895Z,3.22
2022-08-11T12:00:33.123Z,3.53
2022-08-11T12:03:05.132Z,3.30
2022-08-11T12:05:34.567Z,2.75
2022-08-11T12:08:18.707Z,1.90
2022-08-11T12:11:13.222Z,2.63
2022-08-11T12:13:42.530Z,2.90
2022-08-11T12:16:33.250Z,2.20
2022-08-11T12:19:00.767Z,3.35
2022-08-11T12:21:31.264Z,2.45
2022-08-11T12:24:19.892Z,1.80
2022-08-11T12:27:15.935Z,1.77
2022-08-11T12:29:50.097Z,1.98
2022-08-11T12:32:23.151Z,3.75
2022-08-11T12:34:50.863Z,3.08
2022-08-11T12:37:23.753Z,2.75
2022-08-11T12:40:43.030Z,2.70
2022-08-11T12:43:38.936Z,3.03
2022-08-11T12:46:21.766Z,2.53
2022-08-11T12:49:11.255Z,2.90
2022-08-11T12:52:12.172Z,2.92
2022-08-11T12:55:13.287Z,4.43
2022-08-11T12:58:05.936Z,2.85
2022-08-11T13:00:52.368Z,2.20
2022-08-11T13:03:39.114Z,3.72
2022-08-11T13:06:07.455Z,3.25
2022-08-11T13:08:40.605Z,4.22
2022-08-11T13:11:55.947Z,2.47
2022-08-11T13:14:16.757Z,8.07
2022-08-11T13:17:04.325Z,3.85
2022-08-11T13:19:32.165Z,3.95
2022-08-11T13:22:00.753Z,2.85
2022-08-11T13:24:28.667Z,3.45
2022-08-11T13:29:25.654Z,3.92
2022-08-11T13:31:56.056Z,5.53
2022-08-11T13:34:24.778Z,5.07
2022-08-11T13:36:54.210Z,2.35
2022-08-11T13:39:24.005Z,6.78
2022-08-11T13:41:53.498Z,2.00
2022-08-11T13:44:25.537Z,2.47
2022-08-11T13:46:57.520Z,3.08
2022-08-11T13:49:25.985Z,2.30
2022-08-11T13:51:54.173Z,7.30
2022-08-11T13:54:38.468Z,2.88
2022-08-11T13:57:09.127Z,3.35
2022-08-11T13:59:51.877Z,2.85
2022-08-11T14:02:30.671Z,3.22
2022-08-11T14:05:19.776Z,2.88
2022-08-11T14:08:02.677Z,2.80
2022-08-11T14:10:33.125Z,2.72
2022-08-11T14:13:27.635Z,2.28
2022-08-11T14:16:02.137Z,3.45
2022-08-11T14:18:33.768Z,2.22
2022-08-11T14:21:22.156Z,2.35
2022-08-11T14:23:55.236Z,4.10
2022-08-11T14:26:29.295Z,2.63
2022-08-11T14:29:15.169Z,4.45
2022-08-11T14:31:51.822Z,3.08
2022-08-11T14:34:21.769Z,4.22
2022-08-11T14:37:00.289Z,3.80
2022-08-11T14:42:19.376Z,3.92
2022-08-11T14:45:07.909Z,3.03
2022-08-11T14:47:37.296Z,2.97
2022-08-11T14:50:11.550Z,1.80
2022-08-11T14:52:44.815Z,4.20
2022-08-11T14:55:32.481Z,3.08
2022-08-11T14:58:01.865Z,3.55
2022-08-11T15:00:30.088Z,2.20
2022-08-11T15:03:11.261Z,2.53
2022-08-11T15:05:52.304Z,2.78
2022-08-11T15:08:47.548Z,3.50
2022-08-11T15:11:36.002Z,2.72
2022-08-11T15:14:05.661Z,2.33
2022-08-11T15:16:52.176Z,3.03
2022-08-11T15:19:23.665Z,2.17
2022-08-11T15:22:09.565Z,3.92
2022-08-11T15:24:36.908Z,4.53
2022-08-11T15:27:27.834Z,2.20
2022-08-11T15:30:17.594Z,2.80
2022-08-11T15:33:20.159Z,2.25
2022-08-11T15:36:05.626Z,1.60
2022-08-11T15:38:36.226Z,4.70
2022-08-11T15:41:25.324Z,2.28
2022-08-11T15:44:13.477Z,4.60
2022-08-11T15:46:40.477Z,5.22
2022-08-11T15:49:22.128Z,2.90
2022-08-11T15:52:02.510Z,2.20
2022-08-11T15:54:32.478Z,6.25
2022-08-11T15:57:04.256Z,2.50
2022-08-11T15:59:52.345Z,3.53
2022-08-11T16:02:40.398Z,2.23
2022-08-11T16:05:11.902Z,2.60
2022-08-11T16:07:41.209Z,1.90
2022-08-11T16:10:10.831Z,1.50
2022-08-11T16:13:03.611Z,2.50
2022-08-11T16:15:59.230Z,1.70
2022-08-11T16:18:40.823Z,3.58
2022-08-11T16:21:33.980Z,2.70
2022-08-11T16:24:05.919Z,2.55
2022-08-11T16:27:11.373Z,3.03
2022-08-11T16:29:25.080Z,2.88
2022-08-11T16:32:11.989Z,2.15
2022-08-11T16:34:58.536Z,2.95
2022-08-11T16:37:44.932Z,3.30
2022-08-11T16:40:12.752Z,2.45
2022-08-11T16:43:08.713Z,3.63
2022-08-11T16:45:58.637Z,2.15
2022-08-11T16:48:38.657Z,2.05
2022-08-11T16:51:08.564Z,3.90
2022-08-11T16:54:03.265Z,3.58
2022-08-11T16:56:28.215Z,3.28
2022-08-11T16:59:16.730Z,2.67
2022-08-11T17:01:46.909Z,1.80
2022-08-11T17:04:49.874Z,4.90
2022-08-11T17:07:42.415Z,2.15
2022-08-11T17:10:52.825Z,3.70
2022-08-11T17:13:29.267Z,2.88
2022-08-11T17:16:07.031Z,4.70
2022-08-11T17:18:48.635Z,2.20
2022-08-11T17:21:17.885Z,6.85
2022-08-11T17:23:50.398Z,3.00
2022-08-11T17:26:24.209Z,4.03
2022-08-11T17:28:59.017Z,2.83
2022-08-11T17:31:47.568Z,3.65
2022-08-11T17:34:33.745Z,3.10
2022-08-11T17:37:00.881Z,7.25
2022-08-11T17:39:30.943Z,2.88
2022-08-11T17:42:19.011Z,3.08
2022-08-11T17:45:07.090Z,6.20
2022-08-11T17:47:53.189Z,2.95
2022-08-11T17:50:21.032Z,4.35
2022-08-11T17:53:07.721Z,3.17
2022-08-11T17:55:54.942Z,5.72
2022-08-11T17:58:42.059Z,2.95
2022-08-11T18:01:11.206Z,2.88
2022-08-11T18:03:40.844Z,4.85
2022-08-11T18:06:12.882Z,2.92
2022-08-11T18:09:06.837Z,3.00
2022-08-11T18:12:07.115Z,4.78
2022-08-11T18:15:00.568Z,3.70
2022-08-11T18:17:45.928Z,3.58
2022-08-11T18:20:31.334Z,4.00
2022-08-11T18:23:20.347Z,3.17
2022-08-11T18:26:07.855Z,2.92
2022-08-11T18:29:16.237Z,2.90
2022-08-11T18:32:08.132Z,5.22
2022-08-11T18:34:59.789Z,2.60
2022-08-11T18:37:49.218Z,6.75
2022-08-11T18:40:45.085Z,4.32
2022-08-11T18:43:32.357Z,2.80
2022-08-11T18:46:24.846Z,3.15
2022-08-11T18:49:19.723Z,4.35
2022-08-11T18:52:08.990Z,3.30
2022-08-11T18:54:58.390Z,3.25
2022-08-11T18:57:50.012Z,3.95
2022-08-11T19:00:43.515Z,3.08
2022-08-11T19:03:31.039Z,2.92
2022-08-11T19:06:39.291Z,2.92
2022-08-11T19:09:30.771Z,2.55
2022-08-11T19:12:19.362Z,2.85
2022-08-11T19:15:07.876Z,3.15
2022-08-11T19:17:56.725Z,2.53
2022-08-11T19:20:45.002Z,3.13
2022-08-11T19:23:31.880Z,3.03
2022-08-11T19:26:18.804Z,2.58
2022-08-11T19:29:07.600Z,3.35
2022-08-11T19:31:55.200Z,2.92
2022-08-11T19:34:44.361Z,5.82
2022-08-11T19:37:30.986Z,3.90
2022-08-11T19:40:28.694Z,4.95
2022-08-11T19:43:23.435Z,2.65
2022-08-11T19:46:11.845Z,2.88
2022-08-11T19:48:58.901Z,5.32
2022-08-11T19:51:45.230Z,4.32
2022-08-11T19:54:31.632Z,5.78
2022-08-11T19:57:18.753Z,5.28
2022-08-11T20:00:05.535Z,2.72
2022-08-11T20:02:51.069Z,3.35
2022-08-11T20:05:36.500Z,2.90
2022-08-11T20:08:23.312Z,4.93
2022-08-11T20:11:12.396Z,4.93
2022-08-11T20:14:00.804Z,3.90
2022-08-11T20:16:47.791Z,6.22
2022-08-11T20:19:54.740Z,3.75
2022-08-11T20:22:42.705Z,5.53
2022-08-11T20:25:29.775Z,4.20
2022-08-11T20:28:15.670Z,2.78
2022-08-11T20:31:03.926Z,3.42
2022-08-11T20:33:53.536Z,3.60
2022-08-11T20:36:39.605Z,5.65
2022-08-11T20:39:27.031Z,3.28
2022-08-11T20:42:13.878Z,3.60
2022-08-11T20:45:01.126Z,3.75
2022-08-11T20:47:56.107Z,3.13
2022-08-11T20:50:47.917Z,3.28
2022-08-11T20:53:39.016Z,3.28
2022-08-11T20:56:28.461Z,3.00
2022-08-11T20:59:18.746Z,5.72
2022-08-11T21:05:13.080Z,3.55
2022-08-11T21:08:13.294Z,5.13
2022-08-11T21:11:01.331Z,4.22
2022-08-11T21:13:56.338Z,4.30
2022-08-11T21:16:48.996Z,3.15
2022-08-11T21:20:00.793Z,4.43
2022-08-11T21:23:05.280Z,3.60
2022-08-11T21:26:01.292Z,6.13
2022-08-11T21:28:48.909Z,6.50
2022-08-11T21:31:34.820Z,5.10
2022-08-11T21:34:21.749Z,6.20
2022-08-11T21:37:09.547Z,4.72
2022-08-11T21:39:56.219Z,3.75
2022-08-11T21:42:44.322Z,6.20
2022-08-11T21:45:31.481Z,3.42
2022-08-11T21:48:19.036Z,3.72
2022-08-11T21:51:04.391Z,3.42
2022-08-11T21:53:52.309Z,3.90
2022-08-11T21:56:38.236Z,4.38
2022-08-11T21:59:26.890Z,5.88
2022-08-11T22:02:13.098Z,7.97
2022-08-11T22:05:01.870Z,6.10
2022-08-11T22:07:48.203Z,5.13
2022-08-11T22:10:41.825Z,4.05
2022-08-11T22:13:30.129Z,4.65
2022-08-11T22:16:19.358Z,5.13
2022-08-11T22:19:08.086Z,9.18
2022-08-11T22:22:03.108Z,5.15
2022-08-11T22:24:50.958Z,3.78
2022-08-11T22:27:36.629Z,5.55
2022-08-11T22:30:24.505Z,7.05
2022-08-11T22:33:10.879Z,4.32
2022-08-11T22:35:58.970Z,5.90
2022-08-11T22:38:45.896Z,6.00
2022-08-11T22:41:32.242Z,6.28
2022-08-11T22:44:17.734Z,5.40
2022-08-11T22:47:03.621Z,6.03
2022-08-11T22:49:58.040Z,5.55
2022-08-11T22:52:45.337Z,5.93
2022-08-11T22:55:31.748Z,5.50
2022-08-11T22:58:17.856Z,5.30
2022-08-11T23:01:03.996Z,6.53
2022-08-11T23:03:51.201Z,6.25
2022-08-11T23:06:39.818Z,5.60
2022-08-11T23:09:27.334Z,5.85
2022-08-11T23:12:13.417Z,6.65
2022-08-11T23:15:00.403Z,5.03
2022-08-11T23:17:46.916Z,5.70
2022-08-11T23:20:38.167Z,8.48
2022-08-11T23:23:26.491Z,7.15
2022-08-11T23:26:14.354Z,6.18
2022-08-11T23:29:04.959Z,5.65
2022-08-11T23:31:53.898Z,6.38
2022-08-11T23:35:03.889Z,5.78
2022-08-11T23:37:48.769Z,7.30
2022-08-11T23:40:35.715Z,5.82
2022-08-11T23:43:22.313Z,4.60
2022-08-11T23:46:07.759Z,7.55
2022-08-11T23:48:56.575Z,4.82
2022-08-11T23:51:43.449Z,4.65
2022-08-11T23:54:32.661Z,4.82
2022-08-11T23:57:23.099Z,3.83
